sensor_id;sensor_type;location;lat;lon;timestamp;temperature;humidity
4209;DHT22;36320;48.860;2.380;2023-01-24T08:43:16;8.90;63.70
4209;DHT22;36320;48.860;2.380;2023-01-24T08:45:42;8.80;64.10
4209;DHT22;36320;48.860;2.380;2023-01-24T08:48:11;8.50;64.40
4209;DHT22;36320;48.860;2.380;2023-01-24T08:50:37;8.10;65.10
4209;DHT22;36320;48.860;2.380;2023-01-24T08:53:03;8.00;65.70
4209;DHT22;36320;48.860;2.380;2023-01-24T08:55:28;7.70;66.00
4209;DHT22;36320;48.860;2.380;2023-01-24T08:58:02;7.50;66.30
4209;DHT22;36320;48.860;2.380;2023-01-24T09:00:28;7.40;66.90
4209;DHT22;36320;48.860;2.380;2023-01-24T09:02:54;7.20;67.50
4209;DHT22;36320;48.860;2.380;2023-01-24T09:05:20;7.20;67.50
4209;DHT22;36320;48.860;2.380;2023-01-24T09:07:46;7.10;67.90
4209;DHT22;36320;48.860;2.380;2023-01-24T09:10:12;7.30;68.30
4209;DHT22;36320;48.860;2.380;2023-01-24T09:12:38;7.50;68.20
4209;DHT22;36320;48.860;2.380;2023-01-24T09:15:06;7.50;67.80
4209;DHT22;36320;48.860;2.380;2023-01-24T09:17:33;7.50;68.10
4209;DHT22;36320;48.860;2.380;2023-01-24T09:20:00;7.30;68.10
4209;DHT22;36320;48.860;2.380;2023-01-24T09:22:27;7.00;68.20
4209;DHT22;36320;48.860;2.380;2023-01-24T09:24:53;7.30;68.50
4209;DHT22;36320;48.860;2.380;2023-01-24T09:27:18;7.20;68.40
4209;DHT22;36320;48.860;2.380;2023-01-24T09:29:44;7.10;68.60
4209;DHT22;36320;48.860;2.380;2023-01-24T09:32:13;7.10;68.80
4209;DHT22;36320;48.860;2.380;2023-01-24T09:34:39;7.20;68.90
4209;DHT22;36320;48.860;2.380;2023-01-24T09:37:14;7.10;69.00
4209;DHT22;36320;48.860;2.380;2023-01-24T09:39:41;7.20;69.20
4209;DHT22;36320;48.860;2.380;2023-01-24T09:47:53;7.40;69.00
4209;DHT22;36320;48.860;2.380;2023-01-24T09:50:44;7.40;68.90
4209;DHT22;36320;48.860;2.380;2023-01-24T09:53:34;7.10;69.00
4209;DHT22;36320;48.860;2.380;2023-01-24T09:56:03;7.20;69.40
4209;DHT22;36320;48.860;2.380;2023-01-24T09:58:33;6.80;69.10
4209;DHT22;36320;48.860;2.380;2023-01-24T10:01:04;6.80;69.80
4209;DHT22;36320;48.860;2.380;2023-01-24T10:03:35;7.00;70.10
4209;DHT22;36320;48.860;2.380;2023-01-24T10:06:23;7.10;69.90
4209;DHT22;36320;48.860;2.380;2023-01-24T10:09:09;7.20;69.60
4209;DHT22;36320;48.860;2.380;2023-01-24T10:14:22;7.40;69.70
4209;DHT22;36320;48.860;2.380;2023-01-24T10:17:14;7.50;69.60
4209;DHT22;36320;48.860;2.380;2023-01-24T10:25:15;7.60;69.30
4209;DHT22;36320;48.860;2.380;2023-01-24T10:27:46;7.60;69.40
4209;DHT22;36320;48.860;2.380;2023-01-24T10:30:22;7.60;69.30
4209;DHT22;36320;48.860;2.380;2023-01-24T10:32:55;7.60;69.40
4209;DHT22;36320;48.860;2.380;2023-01-24T10:35:34;7.60;69.40
4209;DHT22;36320;48.860;2.380;2023-01-24T10:38:05;7.70;69.50
4209;DHT22;36320;48.860;2.380;2023-01-24T10:40:32;7.80;69.40
4209;DHT22;36320;48.860;2.380;2023-01-24T10:43:05;7.90;69.40
4209;DHT22;36320;48.860;2.380;2023-01-24T10:50:43;7.70;69.40
4209;DHT22;36320;48.860;2.380;2023-01-24T10:53:31;7.80;69.30
4209;DHT22;36320;48.860;2.380;2023-01-24T10:56:02;7.80;69.30
4209;DHT22;36320;48.860;2.380;2023-01-24T10:58:53;7.30;69.10
4209;DHT22;36320;48.860;2.380;2023-01-24T11:01:32;7.20;70.20
4209;DHT22;36320;48.860;2.380;2023-01-24T11:03:58;7.40;70.20
4209;DHT22;36320;48.860;2.380;2023-01-24T11:09:04;7.60;70.00
4209;DHT22;36320;48.860;2.380;2023-01-24T11:11:34;7.80;70.10
4209;DHT22;36320;48.860;2.380;2023-01-24T11:14:04;7.80;69.50
4209;DHT22;36320;48.860;2.380;2023-01-24T11:16:43;7.80;69.70
4209;DHT22;36320;48.860;2.380;2023-01-24T11:19:42;7.80;69.60
4209;DHT22;36320;48.860;2.380;2023-01-24T11:22:28;7.90;69.30
4209;DHT22;36320;48.860;2.380;2023-01-24T11:25:03;8.00;69.40
4209;DHT22;36320;48.860;2.380;2023-01-24T11:27:29;7.50;69.30
4209;DHT22;36320;48.860;2.380;2023-01-24T11:30:26;8.00;69.70
4209;DHT22;36320;48.860;2.380;2023-01-24T11:35:46;8.20;69.50
4209;DHT22;36320;48.860;2.380;2023-01-24T11:44:16;8.30;69.10
4209;DHT22;36320;48.860;2.380;2023-01-24T11:46:51;8.20;68.90
4209;DHT22;36320;48.860;2.380;2023-01-24T11:55:18;8.10;69.30
4209;DHT22;36320;48.860;2.380;2023-01-24T12:01:10;7.90;69.50
4209;DHT22;36320;48.860;2.380;2023-01-24T12:09:17;8.30;69.60
4209;DHT22;36320;48.860;2.380;2023-01-24T12:22:19;8.20;69.50
4209;DHT22;36320;48.860;2.380;2023-01-24T12:24:53;8.50;69.60
4209;DHT22;36320;48.860;2.380;2023-01-24T12:27:24;8.30;69.30
4209;DHT22;36320;48.860;2.380;2023-01-24T12:29:58;8.30;69.40
4209;DHT22;36320;48.860;2.380;2023-01-24T12:32:36;8.30;69.40
4209;DHT22;36320;48.860;2.380;2023-01-24T12:35:26;8.40;70.20
4209;DHT22;36320;48.860;2.380;2023-01-24T12:38:22;8.40;69.60
4209;DHT22;36320;48.860;2.380;2023-01-24T12:41:00;8.20;69.20
4209;DHT22;36320;48.860;2.380;2023-01-24T12:46:25;8.10;69.30
4209;DHT22;36320;48.860;2.380;2023-01-24T12:52:03;8.20;70.00
4209;DHT22;36320;48.860;2.380;2023-01-24T12:54:38;8.40;69.80
4209;DHT22;36320;48.860;2.380;2023-01-24T12:57:32;8.40;69.60
4209;DHT22;36320;48.860;2.380;2023-01-24T13:00:00;8.40;69.50
4209;DHT22;36320;48.860;2.380;2023-01-24T13:05:47;8.40;69.60
4209;DHT22;36320;48.860;2.380;2023-01-24T13:11:16;8.50;69.60
4209;DHT22;36320;48.860;2.380;2023-01-24T13:13:48;8.30;69.40
4209;DHT22;36320;48.860;2.380;2023-01-24T13:26:05;8.40;69.30
4209;DHT22;36320;48.860;2.380;2023-01-24T13:28:29;8.10;69.80
4209;DHT22;36320;48.860;2.380;2023-01-24T13:33:47;8.10;70.10
4209;DHT22;36320;48.860;2.380;2023-01-24T13:36:19;8.30;70.20
4209;DHT22;36320;48.860;2.380;2023-01-24T13:38:46;8.20;69.90
4209;DHT22;36320;48.860;2.380;2023-01-24T13:41:18;8.20;70.00
4209;DHT22;36320;48.860;2.380;2023-01-24T13:44:25;8.30;70.20
4209;DHT22;36320;48.860;2.380;2023-01-24T13:50:18;8.30;70.20
4209;DHT22;36320;48.860;2.380;2023-01-24T13:55:15;8.30;70.10
4209;DHT22;36320;48.860;2.380;2023-01-24T14:03:29;8.10;70.10
4209;DHT22;36320;48.860;2.380;2023-01-24T14:21:53;8.30;71.00
4209;DHT22;36320;48.860;2.380;2023-01-24T14:24:32;8.30;70.60
4209;DHT22;36320;48.860;2.380;2023-01-24T14:29:50;8.20;71.20
4209;DHT22;36320;48.860;2.380;2023-01-24T14:32:23;8.30;71.10
4209;DHT22;36320;48.860;2.380;2023-01-24T14:35:12;8.10;70.70
4209;DHT22;36320;48.860;2.380;2023-01-24T14:37:40;8.20;71.00
4209;DHT22;36320;48.860;2.380;2023-01-24T14:40:23;8.20;71.00
4209;DHT22;36320;48.860;2.380;2023-01-24T14:42:51;8.40;71.20
4209;DHT22;36320;48.860;2.380;2023-01-24T14:45:27;8.30;70.80
4209;DHT22;36320;48.860;2.380;2023-01-24T14:47:53;8.10;70.70
4209;DHT22;36320;48.860;2.380;2023-01-24T14:50:28;7.90;70.90
4209;DHT22;36320;48.860;2.380;2023-01-24T14:52:57;7.90;71.20
4209;DHT22;36320;48.860;2.380;2023-01-24T14:57:53;7.70;71.40
4209;DHT22;36320;48.860;2.380;2023-01-24T15:00:21;7.80;72.10
4209;DHT22;36320;48.860;2.380;2023-01-24T15:02:59;8.00;72.00
4209;DHT22;36320;48.860;2.380;2023-01-24T15:05:36;8.20;71.80
4209;DHT22;36320;48.860;2.380;2023-01-24T15:08:12;8.30;71.40
4209;DHT22;36320;48.860;2.380;2023-01-24T15:10:42;8.30;71.10
4209;DHT22;36320;48.860;2.380;2023-01-24T15:13:10;8.20;70.90
4209;DHT22;36320;48.860;2.380;2023-01-24T15:15:42;7.80;71.50
4209;DHT22;36320;48.860;2.380;2023-01-24T15:20:50;8.00;71.40
4209;DHT22;36320;48.860;2.380;2023-01-24T15:23:20;8.10;71.50
4209;DHT22;36320;48.860;2.380;2023-01-24T15:25:46;8.10;71.40
4209;DHT22;36320;48.860;2.380;2023-01-24T15:28:20;8.10;71.30
4209;DHT22;36320;48.860;2.380;2023-01-24T15:30:54;8.00;71.40
4209;DHT22;36320;48.860;2.380;2023-01-24T15:33:20;8.30;71.80
4209;DHT22;36320;48.860;2.380;2023-01-24T15:35:48;8.10;71.20
4209;DHT22;36320;48.860;2.380;2023-01-24T15:38:29;8.10;71.20
4209;DHT22;36320;48.860;2.380;2023-01-24T15:41:20;8.10;71.30
4209;DHT22;36320;48.860;2.380;2023-01-24T15:44:05;8.10;71.30
4209;DHT22;36320;48.860;2.380;2023-01-24T15:46:34;8.20;71.50
4209;DHT22;36320;48.860;2.380;2023-01-24T15:52:03;8.20;71.30
4209;DHT22;36320;48.860;2.380;2023-01-24T15:54:29;8.20;71.20
4209;DHT22;36320;48.860;2.380;2023-01-24T15:56:58;8.30;71.30
4209;DHT22;36320;48.860;2.380;2023-01-24T15:59:25;8.40;71.30
4209;DHT22;36320;48.860;2.380;2023-01-24T16:01:51;8.40;71.10
4209;DHT22;36320;48.860;2.380;2023-01-24T16:04:21;8.40;71.00
4209;DHT22;36320;48.860;2.380;2023-01-24T16:06:48;8.30;71.10
4209;DHT22;36320;48.860;2.380;2023-01-24T16:09:13;8.40;71.00
4209;DHT22;36320;48.860;2.380;2023-01-24T16:11:41;8.20;70.80
4209;DHT22;36320;48.860;2.380;2023-01-24T16:14:19;8.10;70.90
4209;DHT22;36320;48.860;2.380;2023-01-24T16:16:46;8.10;71.20
4209;DHT22;36320;48.860;2.380;2023-01-24T16:19:17;8.00;71.10
4209;DHT22;36320;48.860;2.380;2023-01-24T16:21:44;8.00;71.20
4209;DHT22;36320;48.860;2.380;2023-01-24T16:24:11;7.90;71.50
4209;DHT22;36320;48.860;2.380;2023-01-24T16:26:39;7.90;71.60
4209;DHT22;36320;48.860;2.380;2023-01-24T16:29:29;7.80;72.10
4209;DHT22;36320;48.860;2.380;2023-01-24T16:31:55;8.00;72.00
4209;DHT22;36320;48.860;2.380;2023-01-24T16:34:21;8.00;71.60
4209;DHT22;36320;48.860;2.380;2023-01-24T16:36:47;8.00;71.70
4209;DHT22;36320;48.860;2.380;2023-01-24T16:39:16;7.90;71.80
4209;DHT22;36320;48.860;2.380;2023-01-24T16:41:46;7.90;71.90
4209;DHT22;36320;48.860;2.380;2023-01-24T16:44:13;8.10;72.10
4209;DHT22;36320;48.860;2.380;2023-01-24T16:46:40;8.20;71.90
4209;DHT22;36320;48.860;2.380;2023-01-24T16:49:12;8.20;71.70
4209;DHT22;36320;48.860;2.380;2023-01-24T16:51:37;8.20;71.60
4209;DHT22;36320;48.860;2.380;2023-01-24T16:54:03;8.20;71.50
4209;DHT22;36320;48.860;2.380;2023-01-24T16:56:29;8.20;71.50
4209;DHT22;36320;48.860;2.380;2023-01-24T16:58:55;8.30;71.50
4209;DHT22;36320;48.860;2.380;2023-01-24T17:01:21;8.20;71.40
4209;DHT22;36320;48.860;2.380;2023-01-24T17:03:50;8.20;71.50
4209;DHT22;36320;48.860;2.380;2023-01-24T17:06:17;8.20;71.60
4209;DHT22;36320;48.860;2.380;2023-01-24T17:08:43;8.20;71.60
4209;DHT22;36320;48.860;2.380;2023-01-24T17:11:10;8.10;71.50
4209;DHT22;36320;48.860;2.380;2023-01-24T17:13:37;8.20;71.70
4209;DHT22;36320;48.860;2.380;2023-01-24T17:16:07;8.20;71.60
4209;DHT22;36320;48.860;2.380;2023-01-24T17:18:34;8.10;71.60
4209;DHT22;36320;48.860;2.380;2023-01-24T17:21:09;8.20;71.80
4209;DHT22;36320;48.860;2.380;2023-01-24T17:23:36;8.30;71.70
4209;DHT22;36320;48.860;2.380;2023-01-24T17:26:10;8.40;71.60
4209;DHT22;36320;48.860;2.380;2023-01-24T17:28:37;8.00;71.70
4209;DHT22;36320;48.860;2.380;2023-01-24T17:31:07;8.00;71.80
4209;DHT22;36320;48.860;2.380;2023-01-24T17:33:33;7.80;71.70
4209;DHT22;36320;48.860;2.380;2023-01-24T17:36:03;7.60;71.90
4209;DHT22;36320;48.860;2.380;2023-01-24T17:38:33;7.70;72.40
4209;DHT22;36320;48.860;2.380;2023-01-24T17:41:02;7.60;72.40
4209;DHT22;36320;48.860;2.380;2023-01-24T17:43:32;7.70;72.40
4209;DHT22;36320;48.860;2.380;2023-01-24T17:45:59;7.80;72.50
4209;DHT22;36320;48.860;2.380;2023-01-24T17:48:26;7.80;72.30
4209;DHT22;36320;48.860;2.380;2023-01-24T17:50:52;7.70;72.30
4209;DHT22;36320;48.860;2.380;2023-01-24T17:53:18;7.80;72.60
4209;DHT22;36320;48.860;2.380;2023-01-24T17:55:45;7.90;72.50
4209;DHT22;36320;48.860;2.380;2023-01-24T17:58:12;8.00;72.40
4209;DHT22;36320;48.860;2.380;2023-01-24T18:00:38;7.90;72.10
4209;DHT22;36320;48.860;2.380;2023-01-24T18:03:05;7.80;72.20
4209;DHT22;36320;48.860;2.380;2023-01-24T18:05:33;7.90;72.40
4209;DHT22;36320;48.860;2.380;2023-01-24T18:07:59;7.90;72.30
4209;DHT22;36320;48.860;2.380;2023-01-24T18:10:24;7.80;72.40
4209;DHT22;36320;48.860;2.380;2023-01-24T18:12:50;7.80;72.50
4209;DHT22;36320;48.860;2.380;2023-01-24T18:15:16;7.70;72.70
4209;DHT22;36320;48.860;2.380;2023-01-24T18:17:43;7.50;72.70
4209;DHT22;36320;48.860;2.380;2023-01-24T18:20:10;7.60;73.10
4209;DHT22;36320;48.860;2.380;2023-01-24T18:22:42;7.80;73.00
4209;DHT22;36320;48.860;2.380;2023-01-24T18:25:11;7.50;72.40
4209;DHT22;36320;48.860;2.380;2023-01-24T18:27:37;7.90;72.60
4209;DHT22;36320;48.860;2.380;2023-01-24T18:30:05;7.80;72.60
4209;DHT22;36320;48.860;2.380;2023-01-24T18:32:34;8.00;72.80
4209;DHT22;36320;48.860;2.380;2023-01-24T18:35:00;8.10;72.60
4209;DHT22;36320;48.860;2.380;2023-01-24T18:37:25;7.80;72.50
4209;DHT22;36320;48.860;2.380;2023-01-24T18:39:51;7.80;72.80
4209;DHT22;36320;48.860;2.380;2023-01-24T18:42:20;7.80;72.70
4209;DHT22;36320;48.860;2.380;2023-01-24T18:44:45;6.70;71.40
4209;DHT22;36320;48.860;2.380;2023-01-24T18:47:11;8.00;72.60
4209;DHT22;36320;48.860;2.380;2023-01-24T18:49:37;7.90;72.40
4209;DHT22;36320;48.860;2.380;2023-01-24T18:52:02;7.60;72.50
4209;DHT22;36320;48.860;2.380;2023-01-24T18:54:28;7.70;73.00
4209;DHT22;36320;48.860;2.380;2023-01-24T18:56:54;7.80;73.00
4209;DHT22;36320;48.860;2.380;2023-01-24T18:59:20;7.90;72.60
4209;DHT22;36320;48.860;2.380;2023-01-24T19:01:45;7.90;72.60
4209;DHT22;36320;48.860;2.380;2023-01-24T19:04:11;8.00;72.60
